This is the latest recevied weather packets stored in our database for station/object S50APT-10. If no packets are shown the sender has not sent any weather packets the latest 1 day(s).
| Time | Temp. | Humidity | Pressure | Rain* | Wind** | Luminosity | Snow |
|---|---|---|---|---|---|---|---|
| 1777845599 | 15.56° C | 49% | 1019.4 hPa | - | - | - | - |
| 1777844698 | 16.11° C | 46% | 1019.4 hPa | - | - | - | - |
| 1777843798 | 16.11° C | 47% | 1019.5 hPa | - | - | - | - |
| 1777842897 | 16.11° C | 46% | 1019.5 hPa | - | - | - | - |
| 1777841997 | 16.11° C | 48% | 1019.4 hPa | - | - | - | - |
| 1777841096 | 15.56° C | 49% | 1019.5 hPa | - | - | - | - |
| 1777840196 | 15.56° C | 49% | 1019.5 hPa | - | - | - | - |
| 1777839295 | 16.11° C | 46% | 1019.6 hPa | - | - | - | - |
| 1777838394 | 17.22° C | 44% | 1019.6 hPa | - | - | - | - |
| 1777837493 | 17.78° C | 42% | 1019.5 hPa | - | - | - | - |
| 1777836593 | 17.78° C | 42% | 1019.6 hPa | - | - | - | - |
| 1777835693 | 17.78° C | 42% | 1019.4 hPa | - | - | - | - |
| 1777834792 | 18.33° C | 41% | 1019.3 hPa | - | - | - | - |
| 1777833891 | 18.33° C | 41% | 1019.2 hPa | - | - | - | - |
| 1777832990 | 18.33° C | 40% | 1019 hPa | - | - | - | - |
| 1777832089 | 18.89° C | 39% | 1018.9 hPa | - | - | - | - |
| 1777831189 | 19.44° C | 38% | 1018.8 hPa | - | - | - | - |
| 1777830289 | 19.44° C | 37% | 1018.7 hPa | - | - | - | - |
| 1777829388 | 20.56° C | 36% | 1018.7 hPa | - | - | - | - |
| 1777828488 | 21.11° C | 34% | 1018.7 hPa | - | - | - | - |
| 1777827588 | 22.22° C | 33% | 1018.7 hPa | - | - | - | - |
| 1777826687 | 22.22° C | 32% | 1018.7 hPa | - | - | - | - |
| 1777825785 | 22.78° C | 32% | 1018.7 hPa | - | - | - | - |
| 1777824885 | 25° C | 27% | 1018.7 hPa | - | - | - | - |
| 1777823984 | 25.56° C | 27% | 1018.7 hPa | - | - | - | - |
* Rain since midnight (hover to see other rain measurements)
** Current wind speed in m/s (hover to see current wind gust speed)